Time;durP1;ratioP1;P1;durP2;ratioP2;P2;SDS_P1;SDS_P2;PMS_P1;PMS_P2;Temp;Humidity;BMP_temperature;BMP_pressure;BME280_temperature;BME280_humidity;BME280_pressure;Samples;Min_cycle;Max_cycle;Signal;HPM_P1;HPM_P2
2021/09/11 00:01:43;;;;;;;16.73;6.47;;;;;;;;;;5075804;28;20048;-51
2021/09/11 00:04:12;;;;;;;17.98;8.85;;;;;;;;;;5075674;28;20020;-50
2021/09/11 00:06:38;;;;;;;23.55;11.55;;;;;;;;;;5075709;28;20152;-50
2021/09/11 00:09:04;;;;;;;11.52;5.97;;;;;;;;;;5075704;28;20067;-49
2021/09/11 00:11:30;;;;;;;12.68;5.65;;;;;;;;;;5075193;28;20020;-50
2021/09/11 00:13:56;;;;;;;18.42;5.82;;;;;;;;;;5075192;28;20024;-49
2021/09/11 00:16:22;;;;;;;13.95;5.72;;;;;;;;;;5075411;28;20028;-50
2021/09/11 00:18:48;;;;;;;13.18;6.30;;;;;;;;;;5075558;28;20021;-51
2021/09/11 00:21:15;;;;;;;20.75;6.97;;;;;;;;;;5075529;28;20024;-51
2021/09/11 00:23:41;;;;;;;22.08;11.85;;;;;;;;;;5075150;28;20045;-51
2021/09/11 00:26:07;;;;;;;29.98;16.20;;;;;;;;;;5075232;28;20055;-50
2021/09/11 00:28:33;;;;;;;19.10;10.00;;;;;;;;;;5075201;28;20056;-49
2021/09/11 00:31:00;;;;;;;17.27;7.35;;;;;;;;;;5075031;28;20021;-50
2021/09/11 00:33:26;;;;;;;20.63;10.27;;;;;;;;;;5075367;28;20085;-50
2021/09/11 00:35:55;;;;;;;18.80;9.75;;;;;;;;;;5075529;28;20081;-49
2021/09/11 00:38:23;;;;;;;24.88;12.30;;;;;;;;;;5075127;28;20035;-51
2021/09/11 00:40:49;;;;;;;28.35;14.30;;;;;;;;;;5074985;28;20050;-51
2021/09/11 00:43:25;;;;;;;37.17;18.48;;;;;;;;;;5074991;28;20021;-51
2021/09/11 00:45:51;;;;;;;23.40;11.75;;;;;;;;;;5074720;28;20024;-54
2021/09/11 00:48:17;;;;;;;34.80;16.23;;;;;;;;;;5075266;28;20048;-51
2021/09/11 00:50:44;;;;;;;27.08;11.43;;;;;;;;;;5074628;28;20096;-49
2021/09/11 00:53:12;;;;;;;26.50;12.63;;;;;;;;;;5074575;28;20499;-50
2021/09/11 00:55:38;;;;;;;26.90;14.98;;;;;;;;;;5074674;28;20072;-51
2021/09/11 00:58:07;;;;;;;18.98;10.80;;;;;;;;;;5074518;28;20388;-50
2021/09/11 01:00:33;;;;;;;20.42;11.95;;;;;;;;;;5074694;28;20050;-49
2021/09/11 01:02:59;;;;;;;24.45;12.00;;;;;;;;;;5074496;28;20021;-49
2021/09/11 01:05:25;;;;;;;24.45;8.95;;;;;;;;;;5074675;28;20021;-48
2021/09/11 01:07:51;;;;;;;20.52;8.75;;;;;;;;;;5074768;28;20444;-50
2021/09/11 01:10:17;;;;;;;19.30;9.70;;;;;;;;;;5074309;28;20056;-50
2021/09/11 01:12:44;;;;;;;17.60;7.35;;;;;;;;;;5074246;28;20063;-49
2021/09/11 01:15:11;;;;;;;16.48;7.30;;;;;;;;;;5074502;28;20380;-49
2021/09/11 01:17:40;;;;;;;16.00;7.28;;;;;;;;;;5074430;28;20028;-49
2021/09/11 01:20:07;;;;;;;19.60;7.70;;;;;;;;;;5074205;28;20100;-51
2021/09/11 01:22:33;;;;;;;11.60;7.05;;;;;;;;;;5074029;28;20044;-49
2021/09/11 01:25:07;;;;;;;19.80;7.57;;;;;;;;;;5073138;28;20078;-50
2021/09/11 01:27:33;;;;;;;14.25;6.82;;;;;;;;;;5073920;28;20036;-51
2021/09/11 01:30:00;;;;;;;13.48;7.25;;;;;;;;;;5073930;28;20024;-51
2021/09/11 01:32:27;;;;;;;10.13;6.35;;;;;;;;;;5074192;28;20035;-49
2021/09/11 01:34:53;;;;;;;16.23;7.53;;;;;;;;;;5073913;28;20055;-52
2021/09/11 01:37:19;;;;;;;12.63;7.50;;;;;;;;;;5073905;28;20024;-52
2021/09/11 01:39:49;;;;;;;17.35;8.43;;;;;;;;;;5073865;28;20117;-50
2021/09/11 01:42:17;;;;;;;23.73;8.48;;;;;;;;;;5073714;28;20025;-50
2021/09/11 01:44:49;;;;;;;15.35;7.43;;;;;;;;;;5073839;28;20025;-49
2021/09/11 01:47:16;;;;;;;12.55;7.90;;;;;;;;;;5073788;28;20460;-50
2021/09/11 01:49:43;;;;;;;19.75;8.70;;;;;;;;;;5073668;28;20021;-51
2021/09/11 01:52:09;;;;;;;16.77;8.27;;;;;;;;;;5073616;28;20025;-50
2021/09/11 01:54:36;;;;;;;20.15;8.07;;;;;;;;;;5073606;28;20099;-49
2021/09/11 01:57:02;;;;;;;18.65;7.65;;;;;;;;;;5073429;28;20475;-50
2021/09/11 01:59:28;;;;;;;15.95;8.20;;;;;;;;;;5073549;28;20025;-49
2021/09/11 02:01:54;;;;;;;21.00;8.20;;;;;;;;;;5073509;28;20038;-50
2021/09/11 02:04:22;;;;;;;21.15;8.27;;;;;;;;;;5073564;28;20028;-50
2021/09/11 02:06:48;;;;;;;15.68;6.90;;;;;;;;;;5073442;28;20059;-50
2021/09/11 02:09:14;;;;;;;21.85;7.80;;;;;;;;;;5073489;28;20099;-49
2021/09/11 02:11:41;;;;;;;14.30;7.30;;;;;;;;;;5073277;28;20078;-50
2021/09/11 02:14:07;;;;;;;15.30;7.32;;;;;;;;;;5073493;28;20059;-52
2021/09/11 02:16:33;;;;;;;16.85;6.50;;;;;;;;;;5073430;28;20415;-51
2021/09/11 02:18:59;;;;;;;19.27;6.80;;;;;;;;;;5073484;28;20413;-51
2021/09/11 02:21:25;;;;;;;11.30;6.00;;;;;;;;;;5073280;28;20021;-51
2021/09/11 02:23:51;;;;;;;14.50;6.40;;;;;;;;;;5072964;28;20101;-49
2021/09/11 02:26:17;;;;;;;12.27;6.55;;;;;;;;;;5073146;28;20036;-51
2021/09/11 02:28:43;;;;;;;13.15;6.32;;;;;;;;;;5073134;28;20017;-52
2021/09/11 02:31:10;;;;;;;11.18;5.65;;;;;;;;;;5073055;28;20491;-51
2021/09/11 02:33:39;;;;;;;11.55;5.80;;;;;;;;;;5073100;28;20024;-51
2021/09/11 02:36:05;;;;;;;17.38;5.97;;;;;;;;;;5072972;28;20020;-50
2021/09/11 02:38:32;;;;;;;12.05;6.13;;;;;;;;;;5073103;28;20068;-51
2021/09/11 02:40:58;;;;;;;16.25;6.05;;;;;;;;;;5073026;28;20157;-52
2021/09/11 02:43:24;;;;;;;14.60;6.20;;;;;;;;;;5073079;28;20020;-51
2021/09/11 02:45:50;;;;;;;12.00;6.47;;;;;;;;;;5072838;28;20031;-51
2021/09/11 02:48:17;;;;;;;13.73;5.78;;;;;;;;;;5073150;28;20535;-51
2021/09/11 02:50:43;;;;;;;11.80;5.90;;;;;;;;;;5072818;28;20024;-51
2021/09/11 02:53:09;;;;;;;10.80;5.53;;;;;;;;;;5072852;28;20443;-51
2021/09/11 02:55:35;;;;;;;10.80;5.82;;;;;;;;;;5072902;28;20028;-51
2021/09/11 02:58:01;;;;;;;10.90;5.95;;;;;;;;;;5073136;28;20372;-51
2021/09/11 03:00:27;;;;;;;13.23;5.60;;;;;;;;;;5073094;28;20021;-51
2021/09/11 03:02:53;;;;;;;17.40;5.65;;;;;;;;;;5072840;28;20025;-51
2021/09/11 03:05:19;;;;;;;9.73;5.30;;;;;;;;;;5072836;28;20025;-51
2021/09/11 03:07:45;;;;;;;13.20;6.05;;;;;;;;;;5072803;28;20027;-51
2021/09/11 03:10:11;;;;;;;18.75;5.72;;;;;;;;;;5072700;28;20439;-51
2021/09/11 03:12:38;;;;;;;16.70;6.15;;;;;;;;;;5072729;28;20028;-51
2021/09/11 03:15:04;;;;;;;9.00;4.80;;;;;;;;;;5072926;28;20051;-51
2021/09/11 03:17:30;;;;;;;13.98;5.30;;;;;;;;;;5072667;28;20070;-51
2021/09/11 03:19:56;;;;;;;17.10;5.97;;;;;;;;;;5072845;28;20111;-51
2021/09/11 03:22:25;;;;;;;15.43;5.38;;;;;;;;;;5072476;28;20045;-51
2021/09/11 03:24:53;;;;;;;10.35;5.90;;;;;;;;;;5072669;28;20070;-49
2021/09/11 03:27:19;;;;;;;13.18;5.60;;;;;;;;;;5072512;28;20054;-50
2021/09/11 03:29:45;;;;;;;14.13;6.05;;;;;;;;;;5072708;28;20108;-50
2021/09/11 03:32:12;;;;;;;12.27;5.43;;;;;;;;;;5072597;28;20109;-53
2021/09/11 03:34:38;;;;;;;15.13;5.85;;;;;;;;;;5072540;28;20028;-48
2021/09/11 03:37:04;;;;;;;15.88;5.82;;;;;;;;;;5072453;28;20108;-52
2021/09/11 03:39:30;;;;;;;15.85;6.03;;;;;;;;;;5072527;28;20040;-52
2021/09/11 03:41:56;;;;;;;13.25;5.88;;;;;;;;;;5072397;28;20028;-52
2021/09/11 03:44:22;;;;;;;15.50;5.88;;;;;;;;;;5072549;28;20056;-50
2021/09/11 03:46:51;;;;;;;16.15;5.93;;;;;;;;;;5072548;28;20040;-52
2021/09/11 03:49:17;;;;;;;14.63;6.22;;;;;;;;;;5076051;28;20017;-51
2021/09/11 03:51:43;;;;;;;14.93;5.40;;;;;;;;;;5075908;28;20495;-52
2021/09/11 03:54:11;;;;;;;11.30;6.07;;;;;;;;;;5075940;28;20029;-52
2021/09/11 03:56:39;;;;;;;17.52;5.80;;;;;;;;;;5075762;28;20028;-52
2021/09/11 03:59:05;;;;;;;13.40;6.32;;;;;;;;;;5075831;28;20104;-52
2021/09/11 04:01:31;;;;;;;11.95;6.45;;;;;;;;;;5075699;28;20028;-52
2021/09/11 04:03:57;;;;;;;13.77;6.72;;;;;;;;;;5074300;28;20040;-49
2021/09/11 04:06:23;;;;;;;13.07;6.22;;;;;;;;;;5075570;28;20036;-48
2021/09/11 04:08:49;;;;;;;15.07;6.85;;;;;;;;;;5075678;28;20021;-48
2021/09/11 04:11:15;;;;;;;30.38;12.25;;;;;;;;;;5075517;28;20020;-52
2021/09/11 04:13:41;;;;;;;31.98;13.50;;;;;;;;;;5075418;28;20391;-52
2021/09/11 04:16:08;;;;;;;27.60;14.35;;;;;;;;;;5075611;28;20025;-49
2021/09/11 04:18:34;;;;;;;21.30;7.05;;;;;;;;;;5075481;28;20073;-51
2021/09/11 04:21:00;;;;;;;13.15;5.70;;;;;;;;;;5075355;28;20107;-51
2021/09/11 04:23:26;;;;;;;18.92;8.00;;;;;;;;;;5075169;28;20058;-50
2021/09/11 04:25:52;;;;;;;14.88;7.50;;;;;;;;;;5075127;28;20139;-49
2021/09/11 04:28:18;;;;;;;30.48;13.63;;;;;;;;;;5075092;28;20075;-49
2021/09/11 04:30:44;;;;;;;24.55;10.73;;;;;;;;;;5075411;28;20029;-49
2021/09/11 04:33:10;;;;;;;22.80;9.27;;;;;;;;;;5075279;28;20524;-51
2021/09/11 04:35:41;;;;;;;13.65;7.60;;;;;;;;;;5075116;28;20032;-51
2021/09/11 04:38:07;;;;;;;15.63;8.70;;;;;;;;;;5075104;28;20057;-50
2021/09/11 04:40:33;;;;;;;19.20;8.82;;;;;;;;;;5075000;28;20020;-51
2021/09/11 04:42:59;;;;;;;15.52;7.72;;;;;;;;;;5075123;28;20027;-51
2021/09/11 04:45:28;;;;;;;22.20;10.82;;;;;;;;;;5074891;28;20027;-52
2021/09/11 04:47:54;;;;;;;17.05;8.32;;;;;;;;;;5074707;28;20506;-52
2021/09/11 04:50:20;;;;;;;15.13;8.43;;;;;;;;;;5074738;28;20101;-48
2021/09/11 04:52:46;;;;;;;15.30;7.90;;;;;;;;;;5074506;28;20040;-49
2021/09/11 04:55:12;;;;;;;30.90;14.02;;;;;;;;;;5074805;28;20036;-47
2021/09/11 04:57:38;;;;;;;20.13;10.93;;;;;;;;;;5074502;28;20020;-47
2021/09/11 05:00:05;;;;;;;25.20;13.57;;;;;;;;;;5074371;28;20036;-49
2021/09/11 05:02:31;;;;;;;19.15;8.60;;;;;;;;;;5074513;28;20103;-49
2021/09/11 05:04:57;;;;;;;25.80;13.10;;;;;;;;;;5074402;28;20036;-48
2021/09/11 05:07:24;;;;;;;30.33;14.60;;;;;;;;;;5074449;28;20039;-48
2021/09/11 05:09:50;;;;;;;33.92;15.82;;;;;;;;;;5074370;28;20021;-49
2021/09/11 05:12:16;;;;;;;34.15;18.25;;;;;;;;;;5074172;28;20025;-51
2021/09/11 05:14:43;;;;;;;33.53;17.17;;;;;;;;;;5074212;28;20021;-46
2021/09/11 05:17:09;;;;;;;20.52;10.10;;;;;;;;;;5057791;28;20036;-48
2021/09/11 05:19:35;;;;;;;23.52;10.23;;;;;;;;;;5053486;28;20385;-49
2021/09/11 05:22:01;;;;;;;18.58;9.45;;;;;;;;;;5051738;28;20048;-47
2021/09/11 05:24:27;;;;;;;15.55;7.00;;;;;;;;;;5052728;28;20107;-50
2021/09/11 05:26:53;;;;;;;18.90;9.32;;;;;;;;;;5053123;28;20036;-51
2021/09/11 05:29:20;;;;;;;19.63;9.77;;;;;;;;;;5052545;28;20067;-51
2021/09/11 05:31:46;;;;;;;18.38;7.80;;;;;;;;;;5052583;28;20392;-51
2021/09/11 05:34:12;;;;;;;19.85;8.60;;;;;;;;;;5052464;28;20021;-51
2021/09/11 05:36:38;;;;;;;22.13;9.85;;;;;;;;;;5052469;28;20350;-49
2021/09/11 05:39:04;;;;;;;18.00;8.60;;;;;;;;;;5052706;28;20086;-49
2021/09/11 05:41:30;;;;;;;15.45;7.30;;;;;;;;;;5052731;28;20024;-50
2021/09/11 05:43:56;;;;;;;14.07;6.60;;;;;;;;;;5052613;28;20060;-49
2021/09/11 05:46:22;;;;;;;16.65;7.60;;;;;;;;;;5052659;28;20033;-49
2021/09/11 05:48:49;;;;;;;15.95;8.45;;;;;;;;;;5052706;28;20052;-51
2021/09/11 05:51:15;;;;;;;17.90;7.70;;;;;;;;;;5052807;28;20032;-51
2021/09/11 05:53:41;;;;;;;23.13;7.30;;;;;;;;;;5052324;28;20032;-47
2021/09/11 05:56:09;;;;;;;14.55;6.60;;;;;;;;;;5053011;28;20021;-47
2021/09/11 05:58:35;;;;;;;13.63;7.15;;;;;;;;;;5047291;28;20029;-46
2021/09/11 06:01:01;;;;;;;16.77;7.70;;;;;;;;;;5051932;28;20524;-50
2021/09/11 06:03:28;;;;;;;12.50;6.15;;;;;;;;;;5052235;28;20029;-50
2021/09/11 06:05:55;;;;;;;15.07;6.55;;;;;;;;;;5045869;28;20032;-51
2021/09/11 06:08:21;;;;;;;11.00;5.68;;;;;;;;;;5052323;28;20021;-45
2021/09/11 06:10:47;;;;;;;13.65;6.30;;;;;;;;;;5051538;28;20020;-49
2021/09/11 06:13:13;;;;;;;12.40;6.40;;;;;;;;;;5049202;28;20025;-49
2021/09/11 06:15:39;;;;;;;10.55;6.65;;;;;;;;;;5051967;28;20441;-48
2021/09/11 06:18:05;;;;;;;12.38;6.72;;;;;;;;;;5053196;28;20051;-50
2021/09/11 06:20:31;;;;;;;11.60;7.03;;;;;;;;;;5053201;28;20028;-48
2021/09/11 06:22:57;;;;;;;13.30;6.95;;;;;;;;;;5052975;28;20044;-50
2021/09/11 06:25:23;;;;;;;13.38;6.68;;;;;;;;;;5052952;28;20029;-50
2021/09/11 06:27:54;;;;;;;15.32;8.05;;;;;;;;;;5052862;28;20477;-50
2021/09/11 06:30:21;;;;;;;17.85;8.50;;;;;;;;;;5052942;28;20035;-47
2021/09/11 06:32:47;;;;;;;22.60;9.32;;;;;;;;;;5053254;28;20021;-50
2021/09/11 06:35:13;;;;;;;17.17;10.73;;;;;;;;;;5053136;28;20057;-50
2021/09/11 06:37:39;;;;;;;23.83;12.00;;;;;;;;;;5053054;28;20367;-50
2021/09/11 06:40:05;;;;;;;14.27;11.05;;;;;;;;;;5052959;28;20025;-47
2021/09/11 06:42:31;;;;;;;19.75;10.32;;;;;;;;;;5052923;28;20028;-49
2021/09/11 06:44:58;;;;;;;17.50;9.35;;;;;;;;;;5052804;28;20404;-49
2021/09/11 06:47:24;;;;;;;11.38;6.80;;;;;;;;;;5052668;28;20033;-50
2021/09/11 06:49:50;;;;;;;16.48;6.85;;;;;;;;;;5052946;28;20465;-49
2021/09/11 06:52:16;;;;;;;16.23;6.35;;;;;;;;;;5052750;28;20040;-50
2021/09/11 06:54:42;;;;;;;12.32;6.47;;;;;;;;;;5052627;28;20086;-46
2021/09/11 06:57:10;;;;;;;13.82;5.05;;;;;;;;;;5052689;28;20495;-46
2021/09/11 06:59:36;;;;;;;11.30;5.20;;;;;;;;;;5052629;28;20370;-46
2021/09/11 07:02:02;;;;;;;8.75;5.05;;;;;;;;;;5052772;28;20057;-46
2021/09/11 07:04:29;;;;;;;16.38;5.30;;;;;;;;;;5052769;28;20477;-47
2021/09/11 07:06:55;;;;;;;10.40;5.63;;;;;;;;;;5052647;28;20056;-47
2021/09/11 07:09:23;;;;;;;9.50;4.90;;;;;;;;;;5052808;28;20018;-46
2021/09/11 07:11:49;;;;;;;9.95;5.43;;;;;;;;;;5052623;28;20051;-50
2021/09/11 07:14:16;;;;;;;12.10;5.20;;;;;;;;;;5052545;28;20029;-49
2021/09/11 07:16:43;;;;;;;14.35;4.90;;;;;;;;;;5052786;28;20036;-52
2021/09/11 07:19:09;;;;;;;14.52;5.10;;;;;;;;;;5052594;28;20021;-48
2021/09/11 07:21:36;;;;;;;13.68;5.18;;;;;;;;;;5052577;28;20097;-49
2021/09/11 07:24:02;;;;;;;11.48;4.90;;;;;;;;;;5056032;28;20044;-47
2021/09/11 07:26:28;;;;;;;9.45;4.88;;;;;;;;;;5056170;28;20063;-50
2021/09/11 07:28:55;;;;;;;14.65;5.00;;;;;;;;;;5056223;28;20017;-47
2021/09/11 07:31:21;;;;;;;13.20;5.25;;;;;;;;;;5056474;28;20482;-50
2021/09/11 07:33:47;;;;;;;11.15;5.25;;;;;;;;;;5056284;28;20013;-51
2021/09/11 07:36:13;;;;;;;15.90;6.05;;;;;;;;;;5055923;28;20035;-52
2021/09/11 07:38:40;;;;;;;16.58;5.88;;;;;;;;;;5055808;28;20334;-48
2021/09/11 07:41:06;;;;;;;11.90;5.53;;;;;;;;;;5055565;28;20021;-51
2021/09/11 07:43:32;;;;;;;15.82;8.15;;;;;;;;;;5055510;28;20100;-49
2021/09/11 07:45:59;;;;;;;17.65;8.43;;;;;;;;;;5055606;28;20166;-47
2021/09/11 07:48:25;;;;;;;18.13;6.60;;;;;;;;;;5055527;28;20059;-49
2021/09/11 07:50:51;;;;;;;14.98;5.85;;;;;;;;;;5055295;28;20393;-50
2021/09/11 07:53:18;;;;;;;13.02;5.60;;;;;;;;;;5054984;28;20039;-48
2021/09/11 07:55:44;;;;;;;14.55;4.75;;;;;;;;;;5055416;28;20032;-50
2021/09/11 07:58:10;;;;;;;17.23;5.78;;;;;;;;;;5055341;28;20020;-49
2021/09/11 08:00:37;;;;;;;14.93;5.95;;;;;;;;;;5055130;28;20024;-50
2021/09/11 08:03:03;;;;;;;24.58;8.35;;;;;;;;;;5055077;28;20023;-50
2021/09/11 08:05:29;;;;;;;20.55;7.72;;;;;;;;;;5055267;28;20028;-49
2021/09/11 08:07:55;;;;;;;18.52;7.50;;;;;;;;;;5055066;28;20082;-48
2021/09/11 08:10:22;;;;;;;16.60;6.82;;;;;;;;;;5054983;28;20021;-49
2021/09/11 08:12:48;;;;;;;14.30;6.00;;;;;;;;;;5055069;28;20100;-50
2021/09/11 08:15:18;;;;;;;20.17;6.47;;;;;;;;;;5054914;28;20147;-47
2021/09/11 08:17:45;;;;;;;17.58;6.93;;;;;;;;;;5052791;28;20028;-47
2021/09/11 08:20:14;;;;;;;16.23;6.57;;;;;;;;;;5055041;28;20056;-49
2021/09/11 08:22:41;;;;;;;19.38;6.18;;;;;;;;;;5054482;28;20547;-49
2021/09/11 08:25:07;;;;;;;14.35;6.53;;;;;;;;;;5055275;28;20082;-50
2021/09/11 08:27:34;;;;;;;15.45;5.65;;;;;;;;;;5054607;28;20039;-47
2021/09/11 08:30:00;;;;;;;12.40;5.68;;;;;;;;;;5054362;28;20024;-46
2021/09/11 08:32:26;;;;;;;12.02;6.47;;;;;;;;;;5051740;28;20469;-46
2021/09/11 08:34:52;;;;;;;16.90;6.82;;;;;;;;;;5054208;28;20021;-46
2021/09/11 08:37:21;;;;;;;20.58;5.93;;;;;;;;;;5054724;28;20029;-47
2021/09/11 08:39:47;;;;;;;16.27;8.25;;;;;;;;;;5054484;28;20035;-47
2021/09/11 08:42:13;;;;;;;20.15;6.90;;;;;;;;;;5054425;28;20036;-47
2021/09/11 08:44:39;;;;;;;10.65;5.07;;;;;;;;;;5053942;28;20021;-47
2021/09/11 08:47:06;;;;;;;14.75;5.00;;;;;;;;;;5054016;28;20538;-47
2021/09/11 08:49:32;;;;;;;14.43;4.78;;;;;;;;;;5054089;28;20096;-48
2021/09/11 08:52:01;;;;;;;12.82;4.50;;;;;;;;;;5053956;28;20025;-45
2021/09/11 08:54:27;;;;;;;14.30;6.32;;;;;;;;;;5054349;28;20036;-48
2021/09/11 08:56:53;;;;;;;14.32;5.18;;;;;;;;;;5054607;28;20124;-48
2021/09/11 08:59:20;;;;;;;14.43;4.60;;;;;;;;;;5054410;28;20021;-48
2021/09/11 09:02:06;;;;;;;14.25;3.97;;;;;;;;;;5054551;28;20368;-48
2021/09/11 09:04:52;;;;;;;9.98;4.22;;;;;;;;;;5054775;28;20029;-48
2021/09/11 09:07:30;;;;;;;11.65;4.60;;;;;;;;;;5054610;28;20037;-48
2021/09/11 09:09:58;;;;;;;10.73;4.63;;;;;;;;;;5054591;28;20472;-48
2021/09/11 09:12:24;;;;;;;13.60;4.13;;;;;;;;;;5054573;28;20025;-48
2021/09/11 09:15:20;;;;;;;10.80;4.03;;;;;;;;;;5054773;28;20029;-48
2021/09/11 09:17:50;;;;;;;11.05;4.68;;;;;;;;;;5032481;28;20485;-48
2021/09/11 09:20:19;;;;;;;10.97;4.43;;;;;;;;;;5032424;28;20026;-49
2021/09/11 09:22:46;;;;;;;18.52;5.03;;;;;;;;;;5032261;28;20052;-48
2021/09/11 09:25:22;;;;;;;16.55;4.22;;;;;;;;;;5016304;28;20025;-48
2021/09/11 09:27:58;;;;;;;15.82;4.30;;;;;;;;;;5032080;28;20053;-48
2021/09/11 09:30:35;;;;;;;14.07;4.22;;;;;;;;;;5032503;28;20033;-47
2021/09/11 09:33:01;;;;;;;11.15;3.88;;;;;;;;;;5032084;28;20034;-48
2021/09/11 09:35:27;;;;;;;12.63;3.92;;;;;;;;;;5032239;28;20163;-47
2021/09/11 09:38:22;;;;;;;12.48;4.03;;;;;;;;;;5032128;28;20497;-47
2021/09/11 09:40:49;;;;;;;7.50;3.55;;;;;;;;;;4953968;29;20515;-49
2021/09/11 09:43:32;;;;;;;8.10;3.40;;;;;;;;;;4954250;29;20043;-48
2021/09/11 09:46:08;;;;;;;14.23;3.85;;;;;;;;;;4953175;28;20035;-48
2021/09/11 09:48:36;;;;;;;8.48;3.85;;;;;;;;;;4953897;29;20054;-48
2021/09/11 09:51:03;;;;;;;8.88;3.80;;;;;;;;;;4953922;29;20039;-48
2021/09/11 09:53:29;;;;;;;10.13;3.78;;;;;;;;;;4962568;28;20042;-48
2021/09/11 09:55:56;;;;;;;10.18;3.65;;;;;;;;;;4992421;28;20092;-46
2021/09/11 09:58:22;;;;;;;5.43;3.00;;;;;;;;;;4992543;28;20553;-48
2021/09/11 10:00:48;;;;;;;9.25;3.95;;;;;;;;;;4992698;28;20034;-46
2021/09/11 10:03:14;;;;;;;13.30;3.35;;;;;;;;;;4992440;28;20023;-47
2021/09/11 10:05:42;;;;;;;11.50;3.85;;;;;;;;;;4992430;28;20498;-47
2021/09/11 10:08:11;;;;;;;11.32;3.72;;;;;;;;;;4992279;28;20045;-47
2021/09/11 10:10:41;;;;;;;7.20;3.58;;;;;;;;;;4992416;28;20041;-46
2021/09/11 10:13:09;;;;;;;14.47;3.37;;;;;;;;;;4992286;28;20026;-47
2021/09/11 10:15:35;;;;;;;9.25;3.53;;;;;;;;;;4992161;28;20042;-46
2021/09/11 10:18:02;;;;;;;14.30;3.30;;;;;;;;;;5044025;28;20056;-47
2021/09/11 10:20:29;;;;;;;9.45;3.25;;;;;;;;;;5053634;28;20481;-47
2021/09/11 10:23:07;;;;;;;10.27;4.28;;;;;;;;;;5053224;28;20071;-47
2021/09/11 10:25:40;;;;;;;13.20;3.50;;;;;;;;;;5053299;28;20029;-47
2021/09/11 10:28:14;;;;;;;12.20;3.63;;;;;;;;;;5053298;28;20119;-47
2021/09/11 10:31:00;;;;;;;6.82;3.58;;;;;;;;;;5053404;28;20029;-47
2021/09/11 10:33:38;;;;;;;7.55;3.30;;;;;;;;;;5049977;28;20044;-46
2021/09/11 10:36:04;;;;;;;7.78;3.00;;;;;;;;;;5053276;28;20032;-47
2021/09/11 10:38:40;;;;;;;12.10;3.50;;;;;;;;;;5053345;28;20473;-47
2021/09/11 10:41:08;;;;;;;13.05;2.95;;;;;;;;;;5053437;28;20029;-47
2021/09/11 10:43:34;;;;;;;15.90;4.13;;;;;;;;;;5053253;28;20029;-47
2021/09/11 10:46:06;;;;;;;7.25;3.33;;;;;;;;;;5052424;28;20049;-46
2021/09/11 10:48:44;;;;;;;18.20;9.23;;;;;;;;;;5050043;28;20473;-45
2021/09/11 10:51:23;;;;;;;10.77;5.60;;;;;;;;;;5049888;28;20531;-46
2021/09/11 10:54:09;;;;;;;19.63;9.40;;;;;;;;;;5052605;28;20396;-47
2021/09/11 10:56:37;;;;;;;18.60;8.05;;;;;;;;;;5052201;28;20025;-45
2021/09/11 11:01:57;;;;;;;9.18;3.20;;;;;;;;;;5057280;28;20157;-46
2021/09/11 11:04:31;;;;;;;24.65;9.57;;;;;;;;;;5057008;28;20063;-46
2021/09/11 11:06:57;;;;;;;53.58;26.98;;;;;;;;;;5056391;28;20537;-42
2021/09/11 11:09:24;;;;;;;27.55;12.15;;;;;;;;;;5056292;28;20042;-43
2021/09/11 11:11:51;;;;;;;12.48;5.95;;;;;;;;;;5056521;28;20066;-45
2021/09/11 11:14:17;;;;;;;12.45;3.97;;;;;;;;;;5056652;28;20025;-51
2021/09/11 11:16:46;;;;;;;20.45;12.07;;;;;;;;;;5056220;28;20025;-47
2021/09/11 11:19:23;;;;;;;72.82;55.95;;;;;;;;;;5055972;28;20029;-48
2021/09/11 11:21:56;;;;;;;14.50;6.80;;;;;;;;;;5054140;28;20033;-47
2021/09/11 11:24:23;;;;;;;24.27;11.55;;;;;;;;;;5056013;28;20543;-47
2021/09/11 11:26:49;;;;;;;16.58;7.35;;;;;;;;;;5055955;28;20469;-47
2021/09/11 11:29:17;;;;;;;335.60;225.43;;;;;;;;;;5054801;28;20437;-46
2021/09/11 11:31:44;;;;;;;18.73;10.85;;;;;;;;;;5055926;28;20439;-47
2021/09/11 11:34:13;;;;;;;7.35;4.28;;;;;;;;;;5053388;28;20017;-46
2021/09/11 11:36:48;;;;;;;8.57;3.03;;;;;;;;;;5055907;28;20090;-42
2021/09/11 11:39:23;;;;;;;38.78;19.33;;;;;;;;;;5053997;28;20150;-44
2021/09/11 11:41:53;;;;;;;7.38;3.60;;;;;;;;;;5053098;28;20023;-46
2021/09/11 11:44:19;;;;;;;12.35;4.75;;;;;;;;;;5055844;28;20024;-45
2021/09/11 11:46:45;;;;;;;6.70;3.33;;;;;;;;;;5055633;28;20477;-47
2021/09/11 11:49:12;;;;;;;7.50;3.10;;;;;;;;;;5055699;28;20074;-46
2021/09/11 11:51:40;;;;;;;6.13;3.03;;;;;;;;;;5055616;28;20017;-46
2021/09/11 11:54:06;;;;;;;9.63;3.10;;;;;;;;;;5055472;28;20033;-46
2021/09/11 11:56:45;;;;;;;7.20;3.25;;;;;;;;;;5055654;28;20025;-46
2021/09/11 11:59:11;;;;;;;10.32;3.30;;;;;;;;;;5053128;28;20045;-46
2021/09/11 12:01:39;;;;;;;7.05;2.78;;;;;;;;;;5055322;28;20021;-46
2021/09/11 12:04:15;;;;;;;5.15;2.90;;;;;;;;;;5053729;28;20417;-46
2021/09/11 12:06:47;;;;;;;14.15;7.55;;;;;;;;;;5053348;28;20029;-45
2021/09/11 12:09:15;;;;;;;14.30;6.85;;;;;;;;;;5054489;28;20113;-46
2021/09/11 12:11:41;;;;;;;12.48;6.35;;;;;;;;;;5055051;28;20025;-46
2021/09/11 12:14:07;;;;;;;22.52;13.32;;;;;;;;;;5054141;28;20064;-46
2021/09/11 12:16:33;;;;;;;8.23;5.05;;;;;;;;;;5055120;28;20386;-46
2021/09/11 12:19:13;;;;;;;6.50;4.05;;;;;;;;;;5054934;28;20154;-47
2021/09/11 12:21:39;;;;;;;9.38;3.92;;;;;;;;;;5053228;28;20035;-44
2021/09/11 12:24:05;;;;;;;7.05;2.78;;;;;;;;;;5054748;28;20057;-46
2021/09/11 12:26:32;;;;;;;8.57;2.97;;;;;;;;;;5054809;28;20465;-45
2021/09/11 12:29:05;;;;;;;17.65;4.25;;;;;;;;;;5054867;28;20522;-46
2021/09/11 12:31:35;;;;;;;12.20;3.45;;;;;;;;;;5054655;28;20112;-48
2021/09/11 12:34:08;;;;;;;9.25;2.80;;;;;;;;;;5054971;28;20054;-46
2021/09/11 12:36:34;;;;;;;8.45;3.13;;;;;;;;;;5052319;28;20029;-46
2021/09/11 12:39:05;;;;;;;8.38;2.60;;;;;;;;;;5054883;28;20028;-45
2021/09/11 12:41:31;;;;;;;;;;;;;;;;;;5055110;28;20017;-44
2021/09/11 12:43:57;;;;;;;9.32;3.67;;;;;;;;;;5054614;28;19911;-45
2021/09/11 12:46:40;;;;;;;5.85;2.97;;;;;;;;;;5054556;28;20132;-47
2021/09/11 12:49:08;;;;;;;14.90;5.93;;;;;;;;;;5053736;28;20392;-47
2021/09/11 12:51:34;;;;;;;12.95;5.55;;;;;;;;;;5051867;28;20468;-44
2021/09/11 12:54:00;;;;;;;10.25;3.60;;;;;;;;;;5054243;28;20032;-47
2021/09/11 12:56:26;;;;;;;9.60;3.35;;;;;;;;;;5054411;28;20084;-47
2021/09/11 12:58:55;;;;;;;4.68;2.85;;;;;;;;;;5051490;28;20048;-48
2021/09/11 13:01:21;;;;;;;12.38;6.25;;;;;;;;;;5054518;28;20017;-47
2021/09/11 13:03:47;;;;;;;9.15;3.28;;;;;;;;;;5054293;28;20032;-47
2021/09/11 13:06:14;;;;;;;12.00;2.83;;;;;;;;;;5051484;28;20013;-46
2021/09/11 13:08:42;;;;;;;58.47;36.03;;;;;;;;;;5054273;28;20074;-47
2021/09/11 13:11:09;;;;;;;56.97;36.05;;;;;;;;;;5054074;28;20017;-44
2021/09/11 13:13:35;;;;;;;10.07;5.22;;;;;;;;;;5053898;28;20167;-44
2021/09/11 13:16:01;;;;;;;3.70;2.50;;;;;;;;;;5053852;28;20025;-46
2021/09/11 13:18:27;;;;;;;5.18;2.40;;;;;;;;;;5054012;28;20021;-45
2021/09/11 13:20:58;;;;;;;10.65;2.60;;;;;;;;;;5052149;28;20029;-44
2021/09/11 13:23:24;;;;;;;7.07;2.72;;;;;;;;;;5050380;28;20408;-46
2021/09/11 13:25:50;;;;;;;6.65;2.83;;;;;;;;;;5052210;28;20025;-47
2021/09/11 13:28:16;;;;;;;7.78;2.63;;;;;;;;;;5052560;28;20112;-46
2021/09/11 13:30:42;;;;;;;7.72;2.70;;;;;;;;;;5052849;28;20476;-45
2021/09/11 13:33:08;;;;;;;92.53;65.95;;;;;;;;;;5053405;28;20028;-45
2021/09/11 13:35:36;;;;;;;11.27;3.90;;;;;;;;;;5053610;28;20023;-46
2021/09/11 13:38:02;;;;;;;9.10;3.45;;;;;;;;;;5053560;28;20021;-46
2021/09/11 13:40:29;;;;;;;4.65;3.00;;;;;;;;;;5053550;28;20495;-45
2021/09/11 13:42:55;;;;;;;6.20;2.75;;;;;;;;;;5053344;28;20025;-46
2021/09/11 13:45:21;;;;;;;6.05;2.95;;;;;;;;;;5053637;28;20028;-45
2021/09/11 13:47:47;;;;;;;7.60;2.78;;;;;;;;;;5053393;28;20362;-45
2021/09/11 13:50:13;;;;;;;8.18;3.00;;;;;;;;;;5053374;28;20025;-45
2021/09/11 13:52:39;;;;;;;8.52;2.83;;;;;;;;;;5053275;28;20485;-45
2021/09/11 13:55:05;;;;;;;5.85;3.90;;;;;;;;;;5053172;28;20082;-45
2021/09/11 13:57:31;;;;;;;11.23;2.88;;;;;;;;;;5053010;28;20021;-48
2021/09/11 13:59:57;;;;;;;10.10;3.03;;;;;;;;;;5053492;28;20092;-45
2021/09/11 14:02:23;;;;;;;8.73;2.47;;;;;;;;;;5050388;28;20028;-45
2021/09/11 14:04:49;;;;;;;5.28;2.50;;;;;;;;;;5053054;28;20071;-46
2021/09/11 14:07:15;;;;;;;5.32;2.53;;;;;;;;;;5053013;28;20037;-46
2021/09/11 14:09:42;;;;;;;8.80;3.00;;;;;;;;;;5053037;28;20040;-45
2021/09/11 14:12:08;;;;;;;6.55;2.75;;;;;;;;;;5052908;28;20021;-47
2021/09/11 14:14:34;;;;;;;8.90;2.70;;;;;;;;;;5052884;28;20017;-46
2021/09/11 14:17:01;;;;;;;19.17;10.57;;;;;;;;;;5052789;28;20021;-44
2021/09/11 14:19:29;;;;;;;29.20;17.88;;;;;;;;;;5052693;28;20017;-47
2021/09/11 14:21:55;;;;;;;29.05;16.92;;;;;;;;;;5052737;28;20082;-47
2021/09/11 14:24:21;;;;;;;11.23;3.10;;;;;;;;;;5052598;28;20021;-45
2021/09/11 14:26:47;;;;;;;10.80;2.95;;;;;;;;;;5052467;28;20147;-45
2021/09/11 14:29:14;;;;;;;12.43;2.95;;;;;;;;;;5052126;28;20476;-45
2021/09/11 14:31:41;;;;;;;8.70;3.05;;;;;;;;;;5052455;28;20032;-46
2021/09/11 14:34:07;;;;;;;38.03;24.75;;;;;;;;;;5053098;28;20690;-46
2021/09/11 14:36:33;;;;;;;9.30;2.97;;;;;;;;;;5053222;28;20052;-47